Airfield :
LOGIN :

Register | Disclaimer

   EN    FR    IT 

 










Legend :    VFR   Marginal VFR   IFR   Intensive IFR   Very Intensive IFR
Visi :
Ceiling :
>= 8 km
>= 3000ft
5 to 8 km
1000 to 3000 ft
1500m to 5 km
500 to 1000 ft
800 to 1500m
200 to 500 ft
< 800m
< 200 ft
Symbols :   Thunderstorms  Fog  Heavy snow  Heavy precipitations  Wind > 20 kt
SIGMETs :     Misc.  Thunderstorms  Icing  Turbulence  Mountain Waves  Volcanic Ashes







- Airport Elevation : 1197 ft
- IATA code : SPM


ETAD - Spangdahlem Ab

CURRENT METAR :
  • 170056Z AUTO 06003KT 9999 CLR 16/13 A2994 RMK AO2 SLP116 T01610128 $

EXPIRED METARs :
  • 162356Z AUTO 08003KT 9999 CLR 18/13 A2995 RMK AO2 SLP118 T01770130 10264 20175 58001 $
  • 162256Z AUTO 00000KT 9999 CLR 18/13 A2996 RMK AO2 SLP122 T01750132 402810117 $

TAF TAF ETAD
Valid from the 16 at 19:00 until the 18 at 01:00 UTC


161901Z 1619/1801 VRB06KT 9999 FEW045 QNH2988INS
BECMG 1704/1705 02009KT 8000 -SHRA SCT014 QNH2991INS
TEMPO 1712/1714 VRB15G25KT 6000 -TSRA BKN015CB
BECMG 1714/1715 36010G15KT 9999 NSW BKN035 QNH3003INS
BECMG 1720/1721 VRB06KT 9999 BKN045 QNH3005INS TX29/1712Z TN13/1702Z LAST NO AMDS AFT 1620 NEXT 1704
No reported NOTAMs for that airfield.



MET'MAP, your aeronautical weather chart ! - Copyright ORBIFLY December 2007 - Disclaimer

ORBIFLY MET'MAP TEAM :

Programming & Development : Alexandra Zaïnal
Concept & Development : Baudouin d'Aumeries
Co-Development & Prog : Marc-Olivier Méhu
Technical & hardware support : Manuel Goepfert

Contact : metmap@orbifly.com




SOURCES & CREDITS :

   NOAA